sensor_id;sensor_type;location;lat;lon;timestamp;P1;durP1;ratioP1;P2;durP2;ratioP2
62580;SDS011;48640;48.770;9.148;2022-10-17T00:01:19;4.97;;;2.10;;
62580;SDS011;48640;48.770;9.148;2022-10-17T00:03:45;8.52;;;2.00;;
62580;SDS011;48640;48.770;9.148;2022-10-17T00:06:14;7.47;;;2.50;;
62580;SDS011;48640;48.770;9.148;2022-10-17T00:08:41;4.38;;;2.10;;
62580;SDS011;48640;48.770;9.148;2022-10-17T00:11:12;7.57;;;2.35;;
62580;SDS011;48640;48.770;9.148;2022-10-17T00:13:41;6.57;;;2.63;;
62580;SDS011;48640;48.770;9.148;2022-10-17T00:16:08;7.75;;;2.47;;
62580;SDS011;48640;48.770;9.148;2022-10-17T00:18:35;4.47;;;1.85;;
62580;SDS011;48640;48.770;9.148;2022-10-17T00:21:02;4.40;;;1.80;;
62580;SDS011;48640;48.770;9.148;2022-10-17T00:23:30;5.03;;;2.00;;
62580;SDS011;48640;48.770;9.148;2022-10-17T00:25:59;6.00;;;2.20;;
62580;SDS011;48640;48.770;9.148;2022-10-17T00:28:26;2.90;;;1.52;;
62580;SDS011;48640;48.770;9.148;2022-10-17T00:30:54;8.60;;;1.90;;
62580;SDS011;48640;48.770;9.148;2022-10-17T00:33:21;4.63;;;1.90;;
62580;SDS011;48640;48.770;9.148;2022-10-17T00:35:48;4.60;;;2.58;;
62580;SDS011;48640;48.770;9.148;2022-10-17T00:38:15;5.90;;;2.25;;
62580;SDS011;48640;48.770;9.148;2022-10-17T00:40:43;6.63;;;2.97;;
62580;SDS011;48640;48.770;9.148;2022-10-17T00:43:12;4.50;;;2.03;;
62580;SDS011;48640;48.770;9.148;2022-10-17T00:45:42;5.60;;;2.00;;
62580;SDS011;48640;48.770;9.148;2022-10-17T00:48:09;5.15;;;2.22;;
62580;SDS011;48640;48.770;9.148;2022-10-17T00:50:37;7.10;;;1.70;;
62580;SDS011;48640;48.770;9.148;2022-10-17T00:53:06;7.10;;;2.17;;
62580;SDS011;48640;48.770;9.148;2022-10-17T00:55:35;5.47;;;1.90;;
62580;SDS011;48640;48.770;9.148;2022-10-17T00:58:08;4.82;;;2.05;;
62580;SDS011;48640;48.770;9.148;2022-10-17T01:00:35;6.78;;;2.33;;
62580;SDS011;48640;48.770;9.148;2022-10-17T01:03:02;9.60;;;2.70;;
62580;SDS011;48640;48.770;9.148;2022-10-17T01:05:29;6.05;;;2.00;;
62580;SDS011;48640;48.770;9.148;2022-10-17T01:07:56;3.25;;;2.10;;
62580;SDS011;48640;48.770;9.148;2022-10-17T01:10:25;6.90;;;2.25;;
62580;SDS011;48640;48.770;9.148;2022-10-17T01:13:00;5.80;;;1.95;;
62580;SDS011;48640;48.770;9.148;2022-10-17T01:15:38;5.55;;;1.67;;
62580;SDS011;48640;48.770;9.148;2022-10-17T01:18:16;6.65;;;2.20;;
62580;SDS011;48640;48.770;9.148;2022-10-17T01:29:46;3.30;;;1.80;;
62580;SDS011;48640;48.770;9.148;2022-10-17T01:32:36;7.07;;;2.50;;
62580;SDS011;48640;48.770;9.148;2022-10-17T01:35:10;6.13;;;2.17;;
62580;SDS011;48640;48.770;9.148;2022-10-17T01:37:43;3.40;;;2.15;;
62580;SDS011;48640;48.770;9.148;2022-10-17T01:40:15;4.00;;;1.98;;
62580;SDS011;48640;48.770;9.148;2022-10-17T01:42:50;4.60;;;2.00;;
62580;SDS011;48640;48.770;9.148;2022-10-17T01:45:24;4.72;;;1.90;;
62580;SDS011;48640;48.770;9.148;2022-10-17T01:47:58;5.53;;;2.35;;
62580;SDS011;48640;48.770;9.148;2022-10-17T01:50:27;4.38;;;1.80;;
62580;SDS011;48640;48.770;9.148;2022-10-17T01:53:00;5.50;;;2.03;;
62580;SDS011;48640;48.770;9.148;2022-10-17T01:55:30;7.75;;;2.30;;
62580;SDS011;48640;48.770;9.148;2022-10-17T01:58:02;6.25;;;2.30;;
62580;SDS011;48640;48.770;9.148;2022-10-17T02:00:32;6.05;;;2.20;;
62580;SDS011;48640;48.770;9.148;2022-10-17T02:03:04;11.30;;;2.45;;
62580;SDS011;48640;48.770;9.148;2022-10-17T02:05:35;4.65;;;2.10;;
62580;SDS011;48640;48.770;9.148;2022-10-17T02:08:04;4.72;;;1.77;;
62580;SDS011;48640;48.770;9.148;2022-10-17T02:10:33;7.85;;;2.33;;
62580;SDS011;48640;48.770;9.148;2022-10-17T02:13:05;4.97;;;1.90;;
62580;SDS011;48640;48.770;9.148;2022-10-17T02:15:56;8.00;;;2.20;;
62580;SDS011;48640;48.770;9.148;2022-10-17T02:18:42;6.90;;;2.00;;
62580;SDS011;48640;48.770;9.148;2022-10-17T02:21:18;6.10;;;2.08;;
62580;SDS011;48640;48.770;9.148;2022-10-17T02:23:50;7.20;;;2.20;;
62580;SDS011;48640;48.770;9.148;2022-10-17T02:26:24;5.80;;;2.10;;
62580;SDS011;48640;48.770;9.148;2022-10-17T02:28:57;3.45;;;2.10;;
62580;SDS011;48640;48.770;9.148;2022-10-17T02:31:32;4.68;;;2.15;;
62580;SDS011;48640;48.770;9.148;2022-10-17T02:34:05;6.68;;;1.67;;
62580;SDS011;48640;48.770;9.148;2022-10-17T02:36:38;3.10;;;1.80;;
62580;SDS011;48640;48.770;9.148;2022-10-17T02:39:09;4.53;;;2.00;;
62580;SDS011;48640;48.770;9.148;2022-10-17T02:41:38;4.65;;;2.10;;
62580;SDS011;48640;48.770;9.148;2022-10-17T02:44:06;5.35;;;2.53;;
62580;SDS011;48640;48.770;9.148;2022-10-17T02:46:34;9.95;;;2.20;;
62580;SDS011;48640;48.770;9.148;2022-10-17T02:49:06;5.70;;;2.33;;
62580;SDS011;48640;48.770;9.148;2022-10-17T02:51:39;6.75;;;2.25;;
62580;SDS011;48640;48.770;9.148;2022-10-17T02:54:11;5.63;;;2.78;;
62580;SDS011;48640;48.770;9.148;2022-10-17T02:56:43;4.60;;;2.20;;
62580;SDS011;48640;48.770;9.148;2022-10-17T02:59:14;5.10;;;2.00;;
62580;SDS011;48640;48.770;9.148;2022-10-17T03:01:45;5.47;;;2.25;;
62580;SDS011;48640;48.770;9.148;2022-10-17T03:04:13;9.30;;;4.20;;
62580;SDS011;48640;48.770;9.148;2022-10-17T03:06:40;3.38;;;1.80;;
62580;SDS011;48640;48.770;9.148;2022-10-17T03:09:07;6.75;;;2.33;;
62580;SDS011;48640;48.770;9.148;2022-10-17T03:11:34;7.53;;;2.47;;
62580;SDS011;48640;48.770;9.148;2022-10-17T03:14:01;3.85;;;1.95;;
62580;SDS011;48640;48.770;9.148;2022-10-17T03:16:27;21.38;;;2.63;;
62580;SDS011;48640;48.770;9.148;2022-10-17T03:18:54;5.88;;;2.53;;
62580;SDS011;48640;48.770;9.148;2022-10-17T03:21:23;5.40;;;2.45;;
62580;SDS011;48640;48.770;9.148;2022-10-17T03:23:49;5.53;;;1.92;;
62580;SDS011;48640;48.770;9.148;2022-10-17T03:26:16;5.57;;;2.30;;
62580;SDS011;48640;48.770;9.148;2022-10-17T03:28:43;4.45;;;1.85;;
62580;SDS011;48640;48.770;9.148;2022-10-17T03:31:11;6.40;;;2.20;;
62580;SDS011;48640;48.770;9.148;2022-10-17T03:33:40;6.47;;;2.30;;
62580;SDS011;48640;48.770;9.148;2022-10-17T03:36:07;2.22;;;1.48;;
62580;SDS011;48640;48.770;9.148;2022-10-17T03:38:37;5.30;;;2.45;;
62580;SDS011;48640;48.770;9.148;2022-10-17T03:41:04;3.67;;;1.65;;
62580;SDS011;48640;48.770;9.148;2022-10-17T03:43:31;6.85;;;2.10;;
62580;SDS011;48640;48.770;9.148;2022-10-17T03:45:59;6.50;;;2.45;;
62580;SDS011;48640;48.770;9.148;2022-10-17T03:48:26;5.07;;;1.90;;
62580;SDS011;48640;48.770;9.148;2022-10-17T03:50:57;5.05;;;2.20;;
62580;SDS011;48640;48.770;9.148;2022-10-17T03:53:25;7.53;;;2.42;;
62580;SDS011;48640;48.770;9.148;2022-10-17T03:55:53;7.68;;;3.22;;
62580;SDS011;48640;48.770;9.148;2022-10-17T03:58:21;4.68;;;2.15;;
62580;SDS011;48640;48.770;9.148;2022-10-17T04:00:47;6.82;;;2.70;;
62580;SDS011;48640;48.770;9.148;2022-10-17T04:03:14;6.28;;;2.40;;
62580;SDS011;48640;48.770;9.148;2022-10-17T04:05:41;6.55;;;2.78;;
62580;SDS011;48640;48.770;9.148;2022-10-17T04:08:08;6.35;;;2.85;;
62580;SDS011;48640;48.770;9.148;2022-10-17T04:10:34;6.22;;;2.70;;
62580;SDS011;48640;48.770;9.148;2022-10-17T04:13:03;5.30;;;2.92;;
62580;SDS011;48640;48.770;9.148;2022-10-17T04:15:30;6.35;;;2.22;;
62580;SDS011;48640;48.770;9.148;2022-10-17T04:17:57;5.65;;;2.30;;
62580;SDS011;48640;48.770;9.148;2022-10-17T04:20:24;4.55;;;2.45;;
62580;SDS011;48640;48.770;9.148;2022-10-17T04:22:50;9.77;;;5.03;;
62580;SDS011;48640;48.770;9.148;2022-10-17T04:25:17;9.40;;;3.08;;
62580;SDS011;48640;48.770;9.148;2022-10-17T04:27:44;7.28;;;2.47;;
62580;SDS011;48640;48.770;9.148;2022-10-17T04:30:12;6.00;;;2.70;;
62580;SDS011;48640;48.770;9.148;2022-10-17T04:32:39;4.22;;;2.28;;
62580;SDS011;48640;48.770;9.148;2022-10-17T04:35:06;4.25;;;2.30;;
62580;SDS011;48640;48.770;9.148;2022-10-17T04:37:33;3.05;;;2.15;;
62580;SDS011;48640;48.770;9.148;2022-10-17T04:40:00;3.53;;;2.00;;
62580;SDS011;48640;48.770;9.148;2022-10-17T04:42:27;4.20;;;2.75;;
62580;SDS011;48640;48.770;9.148;2022-10-17T04:44:54;3.53;;;2.03;;
62580;SDS011;48640;48.770;9.148;2022-10-17T04:47:22;6.45;;;2.35;;
62580;SDS011;48640;48.770;9.148;2022-10-17T04:49:49;3.97;;;2.25;;
62580;SDS011;48640;48.770;9.148;2022-10-17T04:52:16;6.75;;;2.30;;
62580;SDS011;48640;48.770;9.148;2022-10-17T04:54:42;4.90;;;2.10;;
62580;SDS011;48640;48.770;9.148;2022-10-17T04:57:09;4.90;;;2.17;;
62580;SDS011;48640;48.770;9.148;2022-10-17T04:59:36;4.47;;;1.90;;
62580;SDS011;48640;48.770;9.148;2022-10-17T05:02:03;3.95;;;2.03;;
62580;SDS011;48640;48.770;9.148;2022-10-17T05:04:31;4.03;;;2.10;;
62580;SDS011;48640;48.770;9.148;2022-10-17T05:06:58;4.72;;;2.45;;
62580;SDS011;48640;48.770;9.148;2022-10-17T05:09:25;4.85;;;2.60;;
62580;SDS011;48640;48.770;9.148;2022-10-17T05:11:52;4.53;;;2.30;;
62580;SDS011;48640;48.770;9.148;2022-10-17T05:14:19;4.30;;;2.20;;
62580;SDS011;48640;48.770;9.148;2022-10-17T05:16:46;3.97;;;2.20;;
62580;SDS011;48640;48.770;9.148;2022-10-17T05:19:13;3.85;;;2.72;;
62580;SDS011;48640;48.770;9.148;2022-10-17T05:21:42;5.55;;;3.10;;
62580;SDS011;48640;48.770;9.148;2022-10-17T05:24:10;4.55;;;2.92;;
62580;SDS011;48640;48.770;9.148;2022-10-17T05:29:05;4.65;;;2.78;;
62580;SDS011;48640;48.770;9.148;2022-10-17T05:31:32;6.25;;;3.22;;
62580;SDS011;48640;48.770;9.148;2022-10-17T05:33:59;6.10;;;2.83;;
62580;SDS011;48640;48.770;9.148;2022-10-17T05:36:26;4.05;;;2.67;;
62580;SDS011;48640;48.770;9.148;2022-10-17T05:38:54;11.10;;;3.00;;
62580;SDS011;48640;48.770;9.148;2022-10-17T05:41:21;5.35;;;3.17;;
62580;SDS011;48640;48.770;9.148;2022-10-17T05:43:48;7.05;;;2.80;;
62580;SDS011;48640;48.770;9.148;2022-10-17T05:46:15;5.38;;;2.75;;
62580;SDS011;48640;48.770;9.148;2022-10-17T05:48:42;7.78;;;3.00;;
62580;SDS011;48640;48.770;9.148;2022-10-17T05:51:09;4.93;;;2.47;;
62580;SDS011;48640;48.770;9.148;2022-10-17T05:53:36;7.68;;;2.83;;
62580;SDS011;48640;48.770;9.148;2022-10-17T05:56:07;5.43;;;2.95;;
62580;SDS011;48640;48.770;9.148;2022-10-17T05:58:35;4.88;;;2.70;;
62580;SDS011;48640;48.770;9.148;2022-10-17T06:01:05;4.53;;;2.80;;
62580;SDS011;48640;48.770;9.148;2022-10-17T06:03:32;6.13;;;2.65;;
62580;SDS011;48640;48.770;9.148;2022-10-17T06:06:02;5.00;;;3.05;;
62580;SDS011;48640;48.770;9.148;2022-10-17T06:08:29;9.75;;;3.08;;
62580;SDS011;48640;48.770;9.148;2022-10-17T06:10:56;5.00;;;2.75;;
62580;SDS011;48640;48.770;9.148;2022-10-17T06:13:24;5.55;;;3.60;;
62580;SDS011;48640;48.770;9.148;2022-10-17T06:15:51;7.38;;;3.78;;
62580;SDS011;48640;48.770;9.148;2022-10-17T06:18:18;6.05;;;3.05;;
62580;SDS011;48640;48.770;9.148;2022-10-17T06:20:45;8.05;;;3.13;;
62580;SDS011;48640;48.770;9.148;2022-10-17T06:23:12;5.95;;;3.05;;
62580;SDS011;48640;48.770;9.148;2022-10-17T06:25:38;6.80;;;3.30;;
62580;SDS011;48640;48.770;9.148;2022-10-17T06:28:05;7.78;;;3.25;;
62580;SDS011;48640;48.770;9.148;2022-10-17T06:30:33;8.35;;;3.25;;
62580;SDS011;48640;48.770;9.148;2022-10-17T06:33:03;7.63;;;3.10;;
62580;SDS011;48640;48.770;9.148;2022-10-17T06:35:30;5.57;;;2.97;;
62580;SDS011;48640;48.770;9.148;2022-10-17T06:37:57;8.35;;;3.50;;
62580;SDS011;48640;48.770;9.148;2022-10-17T06:40:24;5.90;;;3.40;;
62580;SDS011;48640;48.770;9.148;2022-10-17T06:42:51;6.78;;;3.50;;
62580;SDS011;48640;48.770;9.148;2022-10-17T06:45:18;7.07;;;3.40;;
62580;SDS011;48640;48.770;9.148;2022-10-17T06:47:46;4.40;;;3.08;;
62580;SDS011;48640;48.770;9.148;2022-10-17T06:50:13;6.68;;;3.25;;
62580;SDS011;48640;48.770;9.148;2022-10-17T06:52:40;7.72;;;3.60;;
62580;SDS011;48640;48.770;9.148;2022-10-17T06:55:07;9.73;;;3.92;;
62580;SDS011;48640;48.770;9.148;2022-10-17T06:57:34;5.57;;;3.38;;
62580;SDS011;48640;48.770;9.148;2022-10-17T07:00:01;5.35;;;3.25;;
62580;SDS011;48640;48.770;9.148;2022-10-17T07:02:29;7.97;;;3.80;;
62580;SDS011;48640;48.770;9.148;2022-10-17T07:04:58;9.48;;;3.15;;
62580;SDS011;48640;48.770;9.148;2022-10-17T07:07:24;5.72;;;3.47;;
62580;SDS011;48640;48.770;9.148;2022-10-17T07:09:51;5.00;;;3.10;;
62580;SDS011;48640;48.770;9.148;2022-10-17T07:12:18;7.15;;;4.05;;
62580;SDS011;48640;48.770;9.148;2022-10-17T07:14:45;6.97;;;4.07;;
62580;SDS011;48640;48.770;9.148;2022-10-17T07:17:14;11.45;;;3.63;;
62580;SDS011;48640;48.770;9.148;2022-10-17T07:19:41;6.35;;;2.95;;
62580;SDS011;48640;48.770;9.148;2022-10-17T07:22:09;4.82;;;2.90;;
62580;SDS011;48640;48.770;9.148;2022-10-17T07:24:37;5.18;;;3.20;;
62580;SDS011;48640;48.770;9.148;2022-10-17T07:27:04;8.82;;;4.35;;
62580;SDS011;48640;48.770;9.148;2022-10-17T07:29:31;6.32;;;3.22;;
62580;SDS011;48640;48.770;9.148;2022-10-17T07:31:57;5.22;;;3.08;;
62580;SDS011;48640;48.770;9.148;2022-10-17T07:34:24;6.63;;;2.88;;
62580;SDS011;48640;48.770;9.148;2022-10-17T07:36:54;7.53;;;3.10;;
62580;SDS011;48640;48.770;9.148;2022-10-17T07:39:22;5.43;;;2.55;;
62580;SDS011;48640;48.770;9.148;2022-10-17T07:41:49;6.72;;;2.80;;
62580;SDS011;48640;48.770;9.148;2022-10-17T07:44:16;6.55;;;3.05;;
62580;SDS011;48640;48.770;9.148;2022-10-17T07:46:43;6.53;;;2.40;;
62580;SDS011;48640;48.770;9.148;2022-10-17T07:49:10;5.13;;;2.35;;
62580;SDS011;48640;48.770;9.148;2022-10-17T07:51:37;7.93;;;2.33;;
62580;SDS011;48640;48.770;9.148;2022-10-17T07:54:04;5.32;;;2.13;;
62580;SDS011;48640;48.770;9.148;2022-10-17T07:56:32;4.22;;;2.00;;
62580;SDS011;48640;48.770;9.148;2022-10-17T07:58:59;5.80;;;2.67;;
62580;SDS011;48640;48.770;9.148;2022-10-17T08:01:26;5.20;;;2.08;;
62580;SDS011;48640;48.770;9.148;2022-10-17T08:03:52;14.70;;;3.58;;
62580;SDS011;48640;48.770;9.148;2022-10-17T08:06:19;3.78;;;2.10;;
62580;SDS011;48640;48.770;9.148;2022-10-17T08:08:46;4.22;;;2.33;;
62580;SDS011;48640;48.770;9.148;2022-10-17T08:11:13;4.80;;;2.15;;
62580;SDS011;48640;48.770;9.148;2022-10-17T08:13:42;3.60;;;1.92;;
62580;SDS011;48640;48.770;9.148;2022-10-17T08:16:09;6.25;;;2.63;;
62580;SDS011;48640;48.770;9.148;2022-10-17T08:18:38;5.18;;;1.60;;
62580;SDS011;48640;48.770;9.148;2022-10-17T08:21:05;4.85;;;1.42;;
62580;SDS011;48640;48.770;9.148;2022-10-17T08:23:33;3.50;;;1.58;;
62580;SDS011;48640;48.770;9.148;2022-10-17T08:26:01;3.53;;;1.80;;
62580;SDS011;48640;48.770;9.148;2022-10-17T08:28:29;7.15;;;2.15;;
62580;SDS011;48640;48.770;9.148;2022-10-17T08:31:08;2.83;;;1.40;;
62580;SDS011;48640;48.770;9.148;2022-10-17T08:33:36;5.63;;;1.95;;
62580;SDS011;48640;48.770;9.148;2022-10-17T08:36:03;4.57;;;1.55;;
62580;SDS011;48640;48.770;9.148;2022-10-17T08:38:31;4.43;;;1.58;;
62580;SDS011;48640;48.770;9.148;2022-10-17T08:40:59;3.45;;;1.58;;
62580;SDS011;48640;48.770;9.148;2022-10-17T08:43:31;4.30;;;1.88;;
62580;SDS011;48640;48.770;9.148;2022-10-17T08:46:08;3.15;;;1.50;;
62580;SDS011;48640;48.770;9.148;2022-10-17T08:48:35;3.40;;;1.60;;
62580;SDS011;48640;48.770;9.148;2022-10-17T08:51:09;2.33;;;1.30;;
62580;SDS011;48640;48.770;9.148;2022-10-17T08:53:40;4.07;;;1.50;;
62580;SDS011;48640;48.770;9.148;2022-10-17T08:56:13;3.97;;;1.33;;
62580;SDS011;48640;48.770;9.148;2022-10-17T08:58:43;2.83;;;1.40;;
62580;SDS011;48640;48.770;9.148;2022-10-17T09:01:16;6.15;;;1.50;;
62580;SDS011;48640;48.770;9.148;2022-10-17T09:04:00;4.20;;;1.50;;
62580;SDS011;48640;48.770;9.148;2022-10-17T09:06:42;3.28;;;1.80;;
62580;SDS011;48640;48.770;9.148;2022-10-17T09:09:17;4.03;;;1.30;;
62580;SDS011;48640;48.770;9.148;2022-10-17T09:11:57;4.65;;;1.33;;
62580;SDS011;48640;48.770;9.148;2022-10-17T09:14:44;3.00;;;1.23;;
62580;SDS011;48640;48.770;9.148;2022-10-17T09:17:32;4.25;;;1.73;;
62580;SDS011;48640;48.770;9.148;2022-10-17T09:20:08;5.55;;;2.47;;
62580;SDS011;48640;48.770;9.148;2022-10-17T09:22:40;5.72;;;1.60;;
62580;SDS011;48640;48.770;9.148;2022-10-17T09:25:11;3.65;;;1.35;;
62580;SDS011;48640;48.770;9.148;2022-10-17T09:27:42;2.10;;;1.30;;
62580;SDS011;48640;48.770;9.148;2022-10-17T09:30:16;3.83;;;1.40;;
62580;SDS011;48640;48.770;9.148;2022-10-17T09:32:52;4.72;;;1.73;;
62580;SDS011;48640;48.770;9.148;2022-10-17T09:35:19;5.53;;;1.40;;
62580;SDS011;48640;48.770;9.148;2022-10-17T09:37:48;2.83;;;1.42;;
62580;SDS011;48640;48.770;9.148;2022-10-17T09:40:17;3.63;;;1.40;;
62580;SDS011;48640;48.770;9.148;2022-10-17T09:42:48;3.28;;;1.90;;
62580;SDS011;48640;48.770;9.148;2022-10-17T09:45:16;2.90;;;1.83;;
62580;SDS011;48640;48.770;9.148;2022-10-17T09:47:49;3.80;;;1.40;;
62580;SDS011;48640;48.770;9.148;2022-10-17T09:50:25;3.65;;;1.30;;
62580;SDS011;48640;48.770;9.148;2022-10-17T09:55:24;2.85;;;1.38;;
62580;SDS011;48640;48.770;9.148;2022-10-17T09:57:58;3.63;;;1.40;;
62580;SDS011;48640;48.770;9.148;2022-10-17T10:00:28;2.22;;;1.30;;
62580;SDS011;48640;48.770;9.148;2022-10-17T10:03:12;2.75;;;1.50;;
62580;SDS011;48640;48.770;9.148;2022-10-17T10:05:42;4.60;;;1.55;;
62580;SDS011;48640;48.770;9.148;2022-10-17T10:08:25;2.95;;;1.40;;
62580;SDS011;48640;48.770;9.148;2022-10-17T10:10:57;3.75;;;1.83;;
62580;SDS011;48640;48.770;9.148;2022-10-17T10:13:27;9.20;;;1.90;;
62580;SDS011;48640;48.770;9.148;2022-10-17T10:15:54;4.22;;;1.30;;
62580;SDS011;48640;48.770;9.148;2022-10-17T10:18:41;4.97;;;1.50;;
62580;SDS011;48640;48.770;9.148;2022-10-17T10:21:09;4.25;;;2.15;;
62580;SDS011;48640;48.770;9.148;2022-10-17T10:23:37;4.80;;;1.98;;
62580;SDS011;48640;48.770;9.148;2022-10-17T10:26:11;3.05;;;1.27;;
62580;SDS011;48640;48.770;9.148;2022-10-17T10:28:50;6.00;;;2.55;;
62580;SDS011;48640;48.770;9.148;2022-10-17T10:31:25;3.22;;;1.08;;
62580;SDS011;48640;48.770;9.148;2022-10-17T10:33:59;4.53;;;1.60;;
62580;SDS011;48640;48.770;9.148;2022-10-17T10:36:44;2.95;;;1.45;;
62580;SDS011;48640;48.770;9.148;2022-10-17T10:39:19;3.78;;;1.60;;
62580;SDS011;48640;48.770;9.148;2022-10-17T10:41:59;1.83;;;1.13;;
62580;SDS011;48640;48.770;9.148;2022-10-17T10:44:28;3.38;;;1.25;;
62580;SDS011;48640;48.770;9.148;2022-10-17T10:47:07;4.28;;;1.50;;
62580;SDS011;48640;48.770;9.148;2022-10-17T10:49:41;2.80;;;1.67;;
62580;SDS011;48640;48.770;9.148;2022-10-17T10:52:09;2.25;;;1.45;;
62580;SDS011;48640;48.770;9.148;2022-10-17T10:54:41;3.10;;;1.30;;
62580;SDS011;48640;48.770;9.148;2022-10-17T10:57:12;3.08;;;1.40;;
62580;SDS011;48640;48.770;9.148;2022-10-17T10:59:47;4.72;;;1.30;;
62580;SDS011;48640;48.770;9.148;2022-10-17T11:02:22;5.15;;;1.60;;
62580;SDS011;48640;48.770;9.148;2022-10-17T11:04:55;3.35;;;1.60;;
62580;SDS011;48640;48.770;9.148;2022-10-17T11:07:26;5.80;;;1.65;;
62580;SDS011;48640;48.770;9.148;2022-10-17T11:09:57;2.88;;;1.42;;
62580;SDS011;48640;48.770;9.148;2022-10-17T11:12:32;5.95;;;1.20;;
62580;SDS011;48640;48.770;9.148;2022-10-17T11:15:02;3.95;;;1.52;;
62580;SDS011;48640;48.770;9.148;2022-10-17T11:17:47;4.35;;;1.55;;
62580;SDS011;48640;48.770;9.148;2022-10-17T11:20:26;2.42;;;1.30;;
62580;SDS011;48640;48.770;9.148;2022-10-17T11:22:59;3.63;;;1.85;;
62580;SDS011;48640;48.770;9.148;2022-10-17T11:25:35;3.95;;;1.27;;
62580;SDS011;48640;48.770;9.148;2022-10-17T11:28:08;5.33;;;2.07;;
62580;SDS011;48640;48.770;9.148;2022-10-17T11:30:40;2.22;;;1.08;;
62580;SDS011;48640;48.770;9.148;2022-10-17T11:33:12;3.33;;;1.10;;
62580;SDS011;48640;48.770;9.148;2022-10-17T11:35:46;3.88;;;1.92;;
62580;SDS011;48640;48.770;9.148;2022-10-17T11:38:17;5.43;;;1.45;;
62580;SDS011;48640;48.770;9.148;2022-10-17T11:40:50;5.03;;;1.90;;
62580;SDS011;48640;48.770;9.148;2022-10-17T11:43:24;6.47;;;1.30;;
62580;SDS011;48640;48.770;9.148;2022-10-17T11:45:54;4.35;;;1.38;;
62580;SDS011;48640;48.770;9.148;2022-10-17T11:48:25;4.82;;;1.63;;
62580;SDS011;48640;48.770;9.148;2022-10-17T11:50:57;3.40;;;1.48;;
62580;SDS011;48640;48.770;9.148;2022-10-17T11:53:30;4.97;;;1.63;;
62580;SDS011;48640;48.770;9.148;2022-10-17T11:56:07;4.57;;;1.85;;
62580;SDS011;48640;48.770;9.148;2022-10-17T11:58:38;6.88;;;1.95;;
62580;SDS011;48640;48.770;9.148;2022-10-17T12:01:13;5.78;;;1.35;;
62580;SDS011;48640;48.770;9.148;2022-10-17T12:03:48;4.05;;;1.38;;
62580;SDS011;48640;48.770;9.148;2022-10-17T12:09:16;3.45;;;1.75;;
62580;SDS011;48640;48.770;9.148;2022-10-17T12:11:50;3.63;;;1.40;;
62580;SDS011;48640;48.770;9.148;2022-10-17T12:14:34;4.95;;;1.30;;
62580;SDS011;48640;48.770;9.148;2022-10-17T12:17:21;4.73;;;1.50;;
62580;SDS011;48640;48.770;9.148;2022-10-17T12:19:52;2.80;;;1.48;;
62580;SDS011;48640;48.770;9.148;2022-10-17T12:22:21;3.35;;;1.20;;
62580;SDS011;48640;48.770;9.148;2022-10-17T12:24:53;3.33;;;1.40;;
62580;SDS011;48640;48.770;9.148;2022-10-17T12:27:23;3.53;;;1.38;;
62580;SDS011;48640;48.770;9.148;2022-10-17T12:30:15;3.45;;;1.38;;
62580;SDS011;48640;48.770;9.148;2022-10-17T12:32:52;4.47;;;1.40;;
62580;SDS011;48640;48.770;9.148;2022-10-17T12:35:31;3.13;;;1.15;;
62580;SDS011;48640;48.770;9.148;2022-10-17T12:41:00;3.20;;;1.50;;
62580;SDS011;48640;48.770;9.148;2022-10-17T12:43:42;5.78;;;1.70;;
62580;SDS011;48640;48.770;9.148;2022-10-17T12:54:54;5.28;;;1.52;;
62580;SDS011;48640;48.770;9.148;2022-10-17T12:57:32;2.95;;;1.20;;
62580;SDS011;48640;48.770;9.148;2022-10-17T13:00:03;4.05;;;1.63;;
62580;SDS011;48640;48.770;9.148;2022-10-17T13:02:38;6.13;;;1.50;;
62580;SDS011;48640;48.770;9.148;2022-10-17T13:05:07;4.82;;;1.80;;
62580;SDS011;48640;48.770;9.148;2022-10-17T13:07:43;3.30;;;1.60;;
62580;SDS011;48640;48.770;9.148;2022-10-17T13:10:22;2.72;;;1.33;;
62580;SDS011;48640;48.770;9.148;2022-10-17T13:12:52;4.97;;;1.60;;
62580;SDS011;48640;48.770;9.148;2022-10-17T13:15:26;4.45;;;2.50;;
62580;SDS011;48640;48.770;9.148;2022-10-17T13:17:57;6.93;;;2.00;;
62580;SDS011;48640;48.770;9.148;2022-10-17T13:20:26;4.10;;;2.25;;
62580;SDS011;48640;48.770;9.148;2022-10-17T13:25:23;9.48;;;2.30;;
62580;SDS011;48640;48.770;9.148;2022-10-17T13:27:58;5.82;;;1.80;;
62580;SDS011;48640;48.770;9.148;2022-10-17T13:30:30;5.45;;;2.33;;
62580;SDS011;48640;48.770;9.148;2022-10-17T13:32:58;4.50;;;2.28;;
62580;SDS011;48640;48.770;9.148;2022-10-17T13:35:26;4.30;;;1.92;;
62580;SDS011;48640;48.770;9.148;2022-10-17T13:40:23;4.18;;;1.70;;
62580;SDS011;48640;48.770;9.148;2022-10-17T13:42:53;3.63;;;1.80;;
62580;SDS011;48640;48.770;9.148;2022-10-17T13:45:24;4.25;;;1.70;;
62580;SDS011;48640;48.770;9.148;2022-10-17T13:47:55;5.45;;;1.90;;
62580;SDS011;48640;48.770;9.148;2022-10-17T13:50:24;6.30;;;2.03;;
62580;SDS011;48640;48.770;9.148;2022-10-17T13:53:07;6.82;;;1.95;;
62580;SDS011;48640;48.770;9.148;2022-10-17T13:55:53;4.60;;;1.80;;
62580;SDS011;48640;48.770;9.148;2022-10-17T13:58:24;4.30;;;1.50;;
62580;SDS011;48640;48.770;9.148;2022-10-17T14:00:54;7.68;;;2.33;;
62580;SDS011;48640;48.770;9.148;2022-10-17T14:03:22;3.08;;;1.60;;
62580;SDS011;48640;48.770;9.148;2022-10-17T14:06:05;9.07;;;2.08;;
62580;SDS011;48640;48.770;9.148;2022-10-17T14:08:51;4.93;;;1.90;;
62580;SDS011;48640;48.770;9.148;2022-10-17T14:11:23;6.13;;;2.17;;
62580;SDS011;48640;48.770;9.148;2022-10-17T14:13:54;5.10;;;2.20;;
62580;SDS011;48640;48.770;9.148;2022-10-17T14:16:23;11.15;;;2.45;;
62580;SDS011;48640;48.770;9.148;2022-10-17T14:18:51;6.00;;;1.48;;
62580;SDS011;48640;48.770;9.148;2022-10-17T14:21:20;7.20;;;2.10;;
62580;SDS011;48640;48.770;9.148;2022-10-17T14:23:47;20.27;;;3.25;;
62580;SDS011;48640;48.770;9.148;2022-10-17T14:26:16;4.30;;;1.75;;
62580;SDS011;48640;48.770;9.148;2022-10-17T14:28:47;6.10;;;1.75;;
62580;SDS011;48640;48.770;9.148;2022-10-17T14:33:59;6.13;;;2.22;;
62580;SDS011;48640;48.770;9.148;2022-10-17T14:36:33;9.02;;;1.83;;
62580;SDS011;48640;48.770;9.148;2022-10-17T14:39:06;3.67;;;1.80;;
62580;SDS011;48640;48.770;9.148;2022-10-17T14:41:43;7.35;;;2.05;;
62580;SDS011;48640;48.770;9.148;2022-10-17T14:44:17;4.72;;;1.98;;
62580;SDS011;48640;48.770;9.148;2022-10-17T14:46:46;3.70;;;1.77;;
62580;SDS011;48640;48.770;9.148;2022-10-17T14:49:18;4.03;;;2.03;;
62580;SDS011;48640;48.770;9.148;2022-10-17T14:54:49;4.72;;;2.10;;
62580;SDS011;48640;48.770;9.148;2022-10-17T14:57:18;4.97;;;2.00;;
62580;SDS011;48640;48.770;9.148;2022-10-17T14:59:48;5.70;;;2.22;;
62580;SDS011;48640;48.770;9.148;2022-10-17T15:02:15;5.30;;;1.75;;
62580;SDS011;48640;48.770;9.148;2022-10-17T15:04:42;5.20;;;1.80;;
62580;SDS011;48640;48.770;9.148;2022-10-17T15:07:11;5.18;;;2.08;;
62580;SDS011;48640;48.770;9.148;2022-10-17T15:09:39;4.35;;;1.90;;
62580;SDS011;48640;48.770;9.148;2022-10-17T15:12:09;4.72;;;2.20;;
62580;SDS011;48640;48.770;9.148;2022-10-17T15:14:39;5.68;;;2.40;;
62580;SDS011;48640;48.770;9.148;2022-10-17T15:17:10;5.57;;;2.42;;
62580;SDS011;48640;48.770;9.148;2022-10-17T15:19:39;6.13;;;2.50;;
62580;SDS011;48640;48.770;9.148;2022-10-17T15:22:06;6.03;;;2.25;;
62580;SDS011;48640;48.770;9.148;2022-10-17T15:24:33;4.57;;;2.08;;
62580;SDS011;48640;48.770;9.148;2022-10-17T15:26:59;4.72;;;1.95;;
62580;SDS011;48640;48.770;9.148;2022-10-17T15:29:26;5.55;;;2.15;;
62580;SDS011;48640;48.770;9.148;2022-10-17T15:31:53;4.40;;;2.00;;
62580;SDS011;48640;48.770;9.148;2022-10-17T15:34:21;6.97;;;2.10;;
62580;SDS011;48640;48.770;9.148;2022-10-17T15:36:48;6.75;;;2.20;;
62580;SDS011;48640;48.770;9.148;2022-10-17T15:39:18;5.00;;;2.60;;
62580;SDS011;48640;48.770;9.148;2022-10-17T15:41:44;7.90;;;2.38;;
62580;SDS011;48640;48.770;9.148;2022-10-17T15:44:13;15.32;;;2.72;;
62580;SDS011;48640;48.770;9.148;2022-10-17T15:46:40;5.60;;;2.90;;